createdAt,value
2019-02-20T00:00:30.029Z,17.82
2019-02-20T00:02:57.857Z,17.81
2019-02-20T00:05:25.710Z,17.80
2019-02-20T00:07:53.427Z,17.71
2019-02-20T00:10:26.786Z,17.99
2019-02-20T00:12:56.511Z,17.83
2019-02-20T00:15:24.230Z,17.78
2019-02-20T00:17:51.964Z,17.65
2019-02-20T00:20:19.707Z,17.81
2019-02-20T00:22:47.461Z,17.76
2019-02-20T00:25:15.196Z,17.56
2019-02-20T00:27:42.955Z,17.70
2019-02-20T00:30:10.709Z,17.76
2019-02-20T00:32:38.552Z,17.65
2019-02-20T00:35:06.378Z,17.67
2019-02-20T00:37:34.174Z,17.69
2019-02-20T00:40:02.285Z,17.67
2019-02-20T00:42:30.035Z,17.64
2019-02-20T00:45:24.967Z,17.68
2019-02-20T00:48:10.272Z,17.70
2019-02-20T00:50:38.292Z,17.47
2019-02-20T00:53:13.585Z,17.79
2019-02-20T00:55:41.426Z,17.67
2019-02-20T00:58:09.182Z,17.65
2019-02-20T01:00:36.919Z,17.68
2019-02-20T01:03:04.860Z,17.68
2019-02-20T01:05:39.706Z,17.65
2019-02-20T01:08:07.509Z,17.61
2019-02-20T01:10:35.283Z,17.64
2019-02-20T01:13:03.064Z,17.53
2019-02-20T01:15:30.989Z,17.59
2019-02-20T01:17:58.743Z,17.54
2019-02-20T01:20:26.484Z,17.53
2019-02-20T01:22:59.776Z,17.61
2019-02-20T01:25:26.668Z,17.57
2019-02-20T01:27:54.534Z,17.58
2019-02-20T01:30:22.243Z,17.57
2019-02-20T01:32:50.005Z,17.63
2019-02-20T01:35:17.767Z,17.54
2019-02-20T01:37:45.519Z,17.56
2019-02-20T01:40:13.244Z,17.49
2019-02-20T01:42:50.245Z,17.58
2019-02-20T01:45:20.995Z,17.51
2019-02-20T01:47:48.720Z,17.44
2019-02-20T01:50:25.517Z,17.46
2019-02-20T01:52:53.231Z,17.50
2019-02-20T01:55:20.972Z,17.45
2019-02-20T01:57:48.690Z,17.46
2019-02-20T02:00:16.423Z,17.45
2019-02-20T02:02:44.194Z,17.45
2019-02-20T02:05:15.533Z,17.47
2019-02-20T02:07:41.351Z,17.46
2019-02-20T02:10:09.069Z,17.52
2019-02-20T02:12:36.840Z,17.53
2019-02-20T02:15:20.554Z,17.45
2019-02-20T02:17:41.471Z,17.52
2019-02-20T02:20:09.194Z,17.44
2019-02-20T02:22:36.915Z,17.51
2019-02-20T02:25:04.915Z,17.47
2019-02-20T02:27:32.685Z,17.45
2019-02-20T02:30:00.496Z,17.48
2019-02-20T02:32:28.275Z,17.43
2019-02-20T02:34:56.016Z,17.43
2019-02-20T02:37:23.809Z,17.30
2019-02-20T02:39:51.531Z,17.44
2019-02-20T02:42:19.254Z,17.42
2019-02-20T02:44:47.043Z,17.47
2019-02-20T02:47:14.815Z,17.50
2019-02-20T02:49:42.562Z,17.39
2019-02-20T02:52:10.397Z,17.33
2019-02-20T02:54:48.255Z,17.37
2019-02-20T02:57:16.005Z,17.31
2019-02-20T02:59:43.807Z,17.33
2019-02-20T03:02:11.527Z,17.33
2019-02-20T03:04:39.246Z,17.37
2019-02-20T03:07:06.973Z,17.38
2019-02-20T03:09:34.686Z,17.35
2019-02-20T03:12:02.568Z,17.47
2019-02-20T03:14:30.309Z,17.34
2019-02-20T03:16:58.015Z,17.31
2019-02-20T03:19:25.754Z,17.38
2019-02-20T03:21:53.516Z,17.37
2019-02-20T03:24:21.360Z,17.36
2019-02-20T03:26:49.075Z,17.42
2019-02-20T03:29:17.142Z,17.33
2019-02-20T03:31:52.752Z,17.33
2019-02-20T03:34:19.014Z,17.36
2019-02-20T03:36:46.832Z,17.35
2019-02-20T03:39:14.580Z,17.46
2019-02-20T03:41:42.288Z,17.37
2019-02-20T03:44:12.096Z,17.34
2019-02-20T03:46:39.840Z,17.39
2019-02-20T03:49:07.585Z,17.35
2019-02-20T03:51:35.302Z,17.38
2019-02-20T03:54:03.071Z,17.35
2019-02-20T03:56:30.801Z,17.40
2019-02-20T03:58:58.548Z,17.36
2019-02-20T04:01:26.276Z,17.33
2019-02-20T04:03:54.012Z,17.33
2019-02-20T04:06:21.777Z,17.23
2019-02-20T04:08:49.491Z,17.44
2019-02-20T04:11:36.362Z,17.39
2019-02-20T04:14:07.685Z,17.37
2019-02-20T04:16:35.410Z,17.32
2019-02-20T04:19:03.135Z,17.42
2019-02-20T04:21:30.846Z,17.30
2019-02-20T04:24:02.381Z,17.30
2019-02-20T04:26:29.562Z,17.34
2019-02-20T04:28:57.318Z,17.34
2019-02-20T04:31:25.050Z,17.25
2019-02-20T04:33:52.765Z,17.30
2019-02-20T04:36:20.516Z,17.30
2019-02-20T04:38:48.301Z,17.32
2019-02-20T04:41:16.049Z,17.27
2019-02-20T04:43:53.324Z,17.32
2019-02-20T04:46:19.063Z,17.30
2019-02-20T04:48:46.778Z,17.34
2019-02-20T04:51:14.511Z,17.35
2019-02-20T04:53:42.657Z,17.37
2019-02-20T04:56:10.419Z,17.34
2019-02-20T04:58:38.125Z,17.29
2019-02-20T05:01:05.890Z,17.31
2019-02-20T05:03:33.615Z,17.26
2019-02-20T05:06:01.327Z,17.13
2019-02-20T05:08:29.326Z,17.30
2019-02-20T05:10:57.035Z,17.25
2019-02-20T05:13:24.759Z,17.29
2019-02-20T05:15:52.500Z,17.23
2019-02-20T05:18:20.274Z,17.29
2019-02-20T05:20:48.010Z,17.16
2019-02-20T05:23:55.887Z,17.27
2019-02-20T05:26:04.332Z,17.23
2019-02-20T05:28:32.043Z,17.25
2019-02-20T05:30:59.776Z,17.27
2019-02-20T05:33:27.492Z,17.27
2019-02-20T05:35:55.219Z,17.26
2019-02-20T05:38:22.931Z,17.22
2019-02-20T05:40:50.684Z,17.29
2019-02-20T05:43:18.403Z,17.31
2019-02-20T05:45:46.124Z,17.29
2019-02-20T05:48:13.839Z,17.28
2019-02-20T05:50:41.583Z,17.33
2019-02-20T05:53:09.370Z,17.23
2019-02-20T05:55:37.300Z,17.16
2019-02-20T05:58:05.117Z,17.23
2019-02-20T06:00:40.309Z,17.20
2019-02-20T06:03:08.212Z,17.11
2019-02-20T06:05:37.707Z,17.24
2019-02-20T06:08:05.720Z,17.22
2019-02-20T06:10:33.581Z,17.27
2019-02-20T06:13:01.303Z,17.29
2019-02-20T06:15:29.604Z,17.28
2019-02-20T06:17:57.536Z,17.23
2019-02-20T06:20:25.316Z,17.20
2019-02-20T06:22:56.044Z,17.32
2019-02-20T06:25:23.808Z,17.33
2019-02-20T06:27:51.524Z,17.29
2019-02-20T06:30:19.287Z,17.30
2019-02-20T06:32:46.996Z,17.29
2019-02-20T06:35:14.804Z,17.16
2019-02-20T06:37:43.860Z,17.18
2019-02-20T06:40:12.941Z,17.28
2019-02-20T06:42:40.753Z,17.25
2019-02-20T06:45:08.743Z,17.22
2019-02-20T06:47:36.455Z,17.30
2019-02-20T06:50:04.368Z,17.35
2019-02-20T06:52:32.072Z,17.17
2019-02-20T06:54:59.834Z,17.32
2019-02-20T06:57:27.567Z,17.32
2019-02-20T06:59:55.298Z,17.34
2019-02-20T07:02:23.215Z,17.26
2019-02-20T07:05:09.166Z,17.16
2019-02-20T07:07:49.764Z,17.33
2019-02-20T07:10:35.835Z,17.36
2019-02-20T07:13:19.235Z,17.29
2019-02-20T07:15:53.559Z,17.30
2019-02-20T07:18:37.447Z,17.32
2019-02-20T07:21:09.878Z,17.35
2019-02-20T07:24:00.416Z,17.35
2019-02-20T07:26:41.372Z,17.32
2019-02-20T07:29:34.447Z,17.32
2019-02-20T07:32:02.222Z,17.32
2019-02-20T07:34:29.948Z,17.29
2019-02-20T07:36:57.795Z,17.34
2019-02-20T07:39:25.542Z,17.25
2019-02-20T07:41:53.258Z,17.28
2019-02-20T07:44:20.979Z,17.30
2019-02-20T07:46:48.697Z,17.30
2019-02-20T07:49:16.468Z,17.31
2019-02-20T07:51:44.175Z,17.30
2019-02-20T07:54:11.891Z,17.10
2019-02-20T07:56:39.598Z,17.36
2019-02-20T07:59:07.375Z,17.26
2019-02-20T08:01:38.963Z,17.32
2019-02-20T08:04:10.242Z,17.33
2019-02-20T08:06:37.974Z,17.30
2019-02-20T08:09:05.792Z,17.33
2019-02-20T08:11:33.595Z,17.34
2019-02-20T08:14:01.335Z,17.31
2019-02-20T08:16:29.054Z,17.34
2019-02-20T08:18:56.754Z,17.34
2019-02-20T08:21:24.747Z,17.21
2019-02-20T08:23:52.446Z,17.35
2019-02-20T08:26:20.181Z,17.35
2019-02-20T08:28:47.905Z,17.36
2019-02-20T08:31:15.634Z,17.36
2019-02-20T08:33:43.367Z,17.45
2019-02-20T08:36:11.088Z,17.45
2019-02-20T08:38:38.808Z,17.37
2019-02-20T08:41:06.527Z,17.45
2019-02-20T08:43:43.399Z,17.32
2019-02-20T08:46:11.139Z,17.47
2019-02-20T08:48:38.983Z,17.43
2019-02-20T08:51:06.756Z,17.44
2019-02-20T08:53:34.506Z,17.41
2019-02-20T08:56:02.225Z,17.48
2019-02-20T08:58:29.959Z,17.55
2019-02-20T09:00:57.695Z,17.51
2019-02-20T09:03:25.411Z,17.52
2019-02-20T09:05:53.138Z,17.45
2019-02-20T09:08:20.887Z,17.50
2019-02-20T09:10:48.627Z,17.46
2019-02-20T09:13:16.539Z,17.45
2019-02-20T09:15:44.278Z,17.52
2019-02-20T09:18:12.063Z,17.49
2019-02-20T09:20:39.803Z,17.50
2019-02-20T09:23:07.547Z,17.49
2019-02-20T09:25:45.091Z,17.52
2019-02-20T09:28:12.808Z,17.50
2019-02-20T09:30:40.538Z,17.58
2019-02-20T09:33:08.411Z,17.56
2019-02-20T09:35:36.141Z,17.51
2019-02-20T09:38:04.019Z,17.48
2019-02-20T09:40:31.818Z,17.55
2019-02-20T09:42:59.522Z,17.60
2019-02-20T09:45:27.259Z,17.59
2019-02-20T09:47:55.235Z,17.66
2019-02-20T09:50:22.996Z,17.58
2019-02-20T09:52:52.772Z,17.63
2019-02-20T09:55:20.418Z,17.59
2019-02-20T09:57:48.806Z,17.76
2019-02-20T10:00:16.657Z,17.68
2019-02-20T10:02:54.828Z,17.62
2019-02-20T10:05:20.562Z,17.62
2019-02-20T10:07:48.411Z,17.62
2019-02-20T10:10:16.272Z,17.60
2019-02-20T10:12:44.049Z,17.59
2019-02-20T10:15:12.176Z,17.67
2019-02-20T10:17:40.192Z,17.67
2019-02-20T10:20:08.545Z,17.72
2019-02-20T10:22:36.352Z,17.69
2019-02-20T10:25:04.137Z,17.83
2019-02-20T10:27:31.954Z,17.67
2019-02-20T10:29:59.682Z,17.76
2019-02-20T10:32:27.647Z,17.85
2019-02-20T10:34:55.535Z,17.74
2019-02-20T10:37:23.360Z,17.71
2019-02-20T10:39:51.136Z,17.77
2019-02-20T10:42:32.221Z,17.71
2019-02-20T10:45:00.275Z,17.70
2019-02-20T10:47:28.008Z,17.75
2019-02-20T10:49:55.765Z,17.78
2019-02-20T10:52:23.588Z,17.79
2019-02-20T10:54:57.531Z,17.81
2019-02-20T10:57:21.148Z,17.89
2019-02-20T10:59:48.914Z,17.88
2019-02-20T11:02:16.672Z,17.81
2019-02-20T11:04:44.472Z,17.85
2019-02-20T11:07:12.219Z,17.88
2019-02-20T11:09:39.981Z,17.86
2019-02-20T11:12:07.727Z,17.86
2019-02-20T11:14:35.447Z,17.93
2019-02-20T11:17:10.719Z,17.93
2019-02-20T11:19:38.444Z,17.91
2019-02-20T11:22:06.202Z,17.89
2019-02-20T11:24:33.972Z,17.88
2019-02-20T11:27:01.754Z,17.93
2019-02-20T11:29:29.567Z,18.01
2019-02-20T11:31:57.334Z,17.98
2019-02-20T11:34:25.127Z,17.93
2019-02-20T11:36:52.947Z,17.99
2019-02-20T11:39:20.674Z,18.02
2019-02-20T11:41:48.459Z,18.13
2019-02-20T11:44:20.937Z,17.99
2019-02-20T11:46:45.787Z,17.99
2019-02-20T11:49:13.498Z,17.99
2019-02-20T11:51:41.223Z,18.06
2019-02-20T11:54:14.564Z,18.05
2019-02-20T11:56:43.642Z,18.02
2019-02-20T11:59:11.428Z,17.96
2019-02-20T12:01:39.182Z,17.90
2019-02-20T12:04:07.022Z,18.08
2019-02-20T12:06:35.049Z,18.02
2019-02-20T12:09:04.536Z,17.95
2019-02-20T12:11:32.371Z,17.94
2019-02-20T12:14:00.216Z,17.93
2019-02-20T12:16:27.986Z,17.87
2019-02-20T12:18:55.700Z,17.90
2019-02-20T12:21:23.489Z,17.88
2019-02-20T12:23:51.384Z,17.91
2019-02-20T12:26:19.419Z,17.87
2019-02-20T12:28:47.299Z,17.90
2019-02-20T12:31:25.572Z,17.87
2019-02-20T12:33:53.628Z,17.84
2019-02-20T12:36:21.379Z,17.84
2019-02-20T12:38:49.107Z,17.85
2019-02-20T12:41:16.822Z,17.77
2019-02-20T12:43:44.584Z,17.77
2019-02-20T12:46:12.346Z,17.35
2019-02-20T12:48:40.139Z,17.98
2019-02-20T12:51:08.106Z,18.02
2019-02-20T12:53:36.822Z,18.06
2019-02-20T12:56:10.017Z,18.00
2019-02-20T12:58:34.059Z,18.00
2019-02-20T13:01:01.867Z,18.05
2019-02-20T13:03:29.756Z,18.11
2019-02-20T13:05:57.491Z,18.10
2019-02-20T13:08:25.406Z,18.04
2019-02-20T13:11:00.908Z,18.01
2019-02-20T13:13:28.676Z,18.04
2019-02-20T13:15:56.491Z,18.05
2019-02-20T13:18:24.311Z,18.17
2019-02-20T13:20:52.179Z,18.18
2019-02-20T13:23:20.230Z,18.26
2019-02-20T13:25:48.148Z,18.18
2019-02-20T13:28:15.939Z,18.20
2019-02-20T13:30:43.742Z,18.04
2019-02-20T13:33:11.466Z,18.25
2019-02-20T13:35:39.213Z,18.23
2019-02-20T13:38:06.920Z,18.17
2019-02-20T13:40:34.639Z,18.23
2019-02-20T13:43:02.398Z,18.24
2019-02-20T13:45:30.261Z,18.28
2019-02-20T13:47:58.197Z,18.26
2019-02-20T13:50:36.582Z,18.26
2019-02-20T13:53:25.408Z,18.27
2019-02-20T13:56:03.476Z,18.26
2019-02-20T13:58:31.608Z,18.30
2019-02-20T14:00:59.637Z,18.25
2019-02-20T14:03:27.623Z,18.28
2019-02-20T14:05:55.632Z,18.40
2019-02-20T14:08:23.857Z,18.35
2019-02-20T14:11:09.162Z,18.35
2019-02-20T14:13:37.261Z,18.35
2019-02-20T14:16:05.292Z,18.29
2019-02-20T14:18:33.157Z,18.33
2019-02-20T14:21:01.146Z,18.41
2019-02-20T14:23:35.586Z,18.58
2019-02-20T14:26:04.059Z,18.46
2019-02-20T14:28:37.202Z,18.43
2019-02-20T14:31:07.736Z,18.43
2019-02-20T14:36:23.285Z,18.53
2019-02-20T14:38:51.755Z,18.58
2019-02-20T14:41:22.005Z,18.51
2019-02-20T14:43:54.807Z,18.40
2019-02-20T14:46:41.496Z,18.53
2019-02-20T14:49:42.921Z,18.55
2019-02-20T14:52:18.651Z,18.56
2019-02-20T14:54:56.654Z,18.39
2019-02-20T14:57:28.380Z,18.50
2019-02-20T14:59:56.352Z,18.55
2019-02-20T15:02:37.633Z,18.53
2019-02-20T15:05:05.573Z,18.60
2019-02-20T15:07:33.936Z,18.51
2019-02-20T15:10:02.070Z,18.49
2019-02-20T15:12:30.164Z,18.42
2019-02-20T15:14:58.036Z,18.53
2019-02-20T15:17:25.955Z,18.53
2019-02-20T15:19:55.293Z,18.50
2019-02-20T15:22:23.393Z,18.55
2019-02-20T15:24:51.652Z,17.96
2019-02-20T15:27:28.306Z,18.56
2019-02-20T15:29:49.062Z,18.56
2019-02-20T15:32:16.878Z,18.54
2019-02-20T15:35:10.071Z,18.55
2019-02-20T15:37:37.818Z,18.55
2019-02-20T15:40:05.771Z,18.54
2019-02-20T15:42:33.520Z,18.53
2019-02-20T15:45:01.350Z,18.59
2019-02-20T15:47:29.154Z,18.60
2019-02-20T15:49:56.967Z,18.59
2019-02-20T15:52:24.943Z,18.56
2019-02-20T15:54:53.158Z,18.59
2019-02-20T15:57:20.951Z,18.58
2019-02-20T15:59:48.911Z,18.59
2019-02-20T16:02:16.741Z,18.65
2019-02-20T16:04:57.599Z,18.64
2019-02-20T16:07:25.501Z,18.65
2019-02-20T16:09:55.644Z,18.62
2019-02-20T16:12:23.934Z,18.62
2019-02-20T16:14:52.585Z,18.62
2019-02-20T16:17:28.144Z,18.61
2019-02-20T16:19:58.190Z,18.91
2019-02-20T16:22:26.442Z,18.66
2019-02-20T16:24:54.733Z,18.52
2019-02-20T16:27:22.906Z,18.63
2019-02-20T16:29:51.014Z,18.63
2019-02-20T16:32:19.259Z,18.54
2019-02-20T16:34:47.542Z,18.59
2019-02-20T16:37:15.668Z,18.61
2019-02-20T16:39:43.992Z,18.66
2019-02-20T16:42:12.426Z,18.63
2019-02-20T16:44:42.816Z,18.72
2019-02-20T16:47:11.058Z,18.67
2019-02-20T16:49:38.922Z,18.78
2019-02-20T16:52:08.630Z,18.78
2019-02-20T16:54:42.700Z,18.64
2019-02-20T16:57:10.920Z,18.26
2019-02-20T16:59:38.781Z,18.79
2019-02-20T17:05:29.336Z,18.76
2019-02-20T17:07:57.408Z,18.63
2019-02-20T17:10:26.842Z,18.64
2019-02-20T17:12:59.641Z,18.63
2019-02-20T17:15:32.181Z,18.67
2019-02-20T17:18:01.225Z,18.68
2019-02-20T17:20:31.382Z,18.65
2019-02-20T17:23:00.053Z,18.66
2019-02-20T17:25:28.034Z,18.67
2019-02-20T17:28:05.482Z,18.59
2019-02-20T17:30:27.413Z,18.67
2019-02-20T17:32:55.277Z,18.70
2019-02-20T17:35:23.866Z,18.68
2019-02-20T17:37:52.378Z,18.71
2019-02-20T17:46:04.971Z,18.78
2019-02-20T17:48:32.955Z,18.78
2019-02-20T17:51:00.854Z,18.68
2019-02-20T17:53:29.063Z,18.66
2019-02-20T17:55:56.783Z,18.69
2019-02-20T17:58:24.553Z,18.67
2019-02-20T18:00:52.338Z,18.70
2019-02-20T18:03:20.078Z,18.64
2019-02-20T18:05:47.915Z,18.64
2019-02-20T18:08:23.239Z,18.77
2019-02-20T18:10:50.990Z,18.67
2019-02-20T18:13:19.751Z,18.64
2019-02-20T18:15:47.585Z,18.62
2019-02-20T18:18:15.331Z,18.66
2019-02-20T18:20:43.484Z,18.57
2019-02-20T18:23:11.406Z,18.65
2019-02-20T18:25:39.198Z,18.70
2019-02-20T18:28:06.974Z,18.73
2019-02-20T18:30:34.700Z,18.73
2019-02-20T18:33:02.517Z,18.63
2019-02-20T18:35:30.317Z,18.56
2019-02-20T18:37:58.060Z,18.74
2019-02-20T18:40:25.962Z,18.74
2019-02-20T18:42:53.675Z,18.64
2019-02-20T18:45:21.435Z,18.58
2019-02-20T18:47:57.159Z,18.63
2019-02-20T18:50:24.940Z,18.63
2019-02-20T18:52:52.656Z,18.65
2019-02-20T18:55:20.452Z,18.70
2019-02-20T18:57:48.238Z,18.68
2019-02-20T19:00:15.967Z,18.65
2019-02-20T19:02:43.742Z,18.68
2019-02-20T19:05:11.621Z,18.66
2019-02-20T19:07:39.555Z,18.59
2019-02-20T19:10:09.367Z,18.60
2019-02-20T19:12:50.579Z,18.67
2019-02-20T19:15:40.789Z,18.64
2019-02-20T19:18:21.035Z,18.64
2019-02-20T19:20:54.714Z,18.74
2019-02-20T19:23:30.844Z,18.69
2019-02-20T19:26:22.168Z,18.66
2019-02-20T19:28:51.417Z,18.71
2019-02-20T19:31:38.584Z,18.67
2019-02-20T19:34:12.447Z,18.68
2019-02-20T19:36:46.510Z,18.66
2019-02-20T19:39:39.751Z,18.79
2019-02-20T19:42:29.677Z,18.85
2019-02-20T19:45:15.910Z,18.71
2019-02-20T19:48:11.722Z,18.82
2019-02-20T19:50:51.184Z,18.67
2019-02-20T19:53:30.320Z,18.66
2019-02-20T19:56:21.578Z,18.68
2019-02-20T19:59:07.491Z,18.66
2019-02-20T20:02:27.912Z,18.69
2019-02-20T20:05:16.059Z,18.73
2019-02-20T20:07:57.312Z,18.69
2019-02-20T20:10:41.300Z,18.69
2019-02-20T20:13:22.078Z,18.74
2019-02-20T20:16:07.500Z,18.70
2019-02-20T20:19:00.872Z,18.75
2019-02-20T20:21:37.766Z,18.67
2019-02-20T20:24:28.656Z,18.73
2019-02-20T20:27:03.244Z,18.73
2019-02-20T20:29:36.970Z,18.73
2019-02-20T20:32:24.318Z,18.71
2019-02-20T20:35:11.424Z,18.69
2019-02-20T20:37:46.226Z,18.76
2019-02-20T20:40:36.153Z,18.73
2019-02-20T20:43:10.318Z,18.71
2019-02-20T20:45:44.350Z,18.59
2019-02-20T20:48:16.523Z,18.72
2019-02-20T20:50:51.349Z,18.79
2019-02-20T20:53:24.481Z,18.77
2019-02-20T20:56:00.623Z,18.70
2019-02-20T20:58:47.771Z,18.60
2019-02-20T21:01:33.528Z,18.64
2019-02-20T21:04:20.718Z,18.64
2019-02-20T21:07:09.275Z,18.71
2019-02-20T21:10:14.431Z,18.69
2019-02-20T21:15:29.338Z,18.73
2019-02-20T21:18:10.655Z,18.68
2019-02-20T21:20:50.918Z,18.69
2019-02-20T21:23:45.929Z,18.72
2019-02-20T21:26:20.516Z,18.73
2019-02-20T21:29:28.181Z,18.69
2019-02-20T21:31:55.331Z,18.73
2019-02-20T21:34:36.342Z,18.74
2019-02-20T21:37:22.198Z,18.72
2019-02-20T21:40:08.665Z,18.69
2019-02-20T21:42:58.784Z,18.77
2019-02-20T21:45:41.510Z,18.65
2019-02-20T21:48:34.537Z,18.66
2019-02-20T21:51:14.758Z,18.70
2019-02-20T21:53:48.594Z,18.67
2019-02-20T21:56:27.195Z,18.68
2019-02-20T21:59:14.191Z,18.67
2019-02-20T22:01:55.082Z,18.52
2019-02-20T22:04:35.822Z,18.65
2019-02-20T22:07:25.226Z,18.69
2019-02-20T22:10:02.607Z,18.67
2019-02-20T22:12:50.935Z,18.69
2019-02-20T22:15:25.312Z,18.70
2019-02-20T22:18:00.066Z,18.67
2019-02-20T22:20:31.615Z,18.66
2019-02-20T22:23:02.963Z,18.63
2019-02-20T22:25:33.838Z,18.65
2019-02-20T22:28:13.013Z,18.64
2019-02-20T22:31:00.015Z,18.64
2019-02-20T22:33:53.174Z,18.69
2019-02-20T22:36:43.278Z,18.63
2019-02-20T22:39:39.514Z,18.77
2019-02-20T22:42:16.965Z,18.77
2019-02-20T22:45:30.595Z,18.62
2019-02-20T22:48:18.923Z,18.61
2019-02-20T22:51:04.843Z,18.62
2019-02-20T22:53:50.778Z,18.67
2019-02-20T22:56:30.360Z,18.65
2019-02-20T22:59:04.689Z,18.62
2019-02-20T23:01:50.767Z,18.66
2019-02-20T23:04:27.791Z,18.61
2019-02-20T23:07:00.374Z,18.65
2019-02-20T23:09:39.921Z,18.58
2019-02-20T23:12:27.846Z,18.62
2019-02-20T23:14:57.660Z,18.58
2019-02-20T23:17:27.179Z,18.59
2019-02-20T23:19:56.481Z,18.53
2019-02-20T23:22:24.311Z,18.59
2019-02-20T23:24:52.313Z,18.53
2019-02-20T23:27:20.395Z,18.51
2019-02-20T23:29:48.447Z,18.50
2019-02-20T23:32:16.970Z,18.53
2019-02-20T23:34:49.008Z,18.62
2019-02-20T23:37:19.570Z,18.51
2019-02-20T23:39:47.375Z,18.46
2019-02-20T23:42:15.555Z,18.45
2019-02-20T23:44:43.591Z,18.52
2019-02-20T23:47:11.454Z,18.46
2019-02-20T23:49:39.616Z,18.51
2019-02-20T23:52:07.539Z,18.45
2019-02-20T23:54:35.738Z,18.51
2019-02-20T23:57:03.769Z,18.49
2019-02-20T23:59:32.555Z,18.44
